sensor_id;sensor_type;location;lat;lon;timestamp;P1;durP1;ratioP1;P2;durP2;ratioP2
9467;SDS011;4772;52.382;9.752;2023-01-06T00:01:00;20.63;;;7.57;;
9467;SDS011;4772;52.382;9.752;2023-01-06T00:03:26;22.77;;;8.60;;
9467;SDS011;4772;52.382;9.752;2023-01-06T00:05:55;19.63;;;7.90;;
9467;SDS011;4772;52.382;9.752;2023-01-06T00:08:21;23.40;;;7.70;;
9467;SDS011;4772;52.382;9.752;2023-01-06T00:10:47;22.10;;;8.50;;
9467;SDS011;4772;52.382;9.752;2023-01-06T00:13:13;18.90;;;8.93;;
9467;SDS011;4772;52.382;9.752;2023-01-06T00:15:39;18.60;;;8.20;;
9467;SDS011;4772;52.382;9.752;2023-01-06T00:18:05;23.67;;;7.93;;
9467;SDS011;4772;52.382;9.752;2023-01-06T00:20:31;18.30;;;8.33;;
9467;SDS011;4772;52.382;9.752;2023-01-06T00:22:58;23.93;;;9.57;;
9467;SDS011;4772;52.382;9.752;2023-01-06T00:25:24;19.27;;;8.43;;
9467;SDS011;4772;52.382;9.752;2023-01-06T00:27:50;22.63;;;9.20;;
9467;SDS011;4772;52.382;9.752;2023-01-06T00:30:16;22.03;;;9.10;;
9467;SDS011;4772;52.382;9.752;2023-01-06T00:32:42;20.17;;;8.83;;
9467;SDS011;4772;52.382;9.752;2023-01-06T00:35:08;24.47;;;10.10;;
9467;SDS011;4772;52.382;9.752;2023-01-06T00:37:34;22.10;;;10.00;;
9467;SDS011;4772;52.382;9.752;2023-01-06T00:40:01;25.37;;;9.50;;
9467;SDS011;4772;52.382;9.752;2023-01-06T00:42:27;21.60;;;9.63;;
9467;SDS011;4772;52.382;9.752;2023-01-06T00:44:53;23.17;;;10.07;;
9467;SDS011;4772;52.382;9.752;2023-01-06T00:47:19;19.67;;;10.10;;
9467;SDS011;4772;52.382;9.752;2023-01-06T00:49:45;24.17;;;10.57;;
9467;SDS011;4772;52.382;9.752;2023-01-06T00:52:11;18.53;;;9.30;;
9467;SDS011;4772;52.382;9.752;2023-01-06T00:54:37;23.73;;;9.73;;
9467;SDS011;4772;52.382;9.752;2023-01-06T00:57:04;21.63;;;9.93;;
9467;SDS011;4772;52.382;9.752;2023-01-06T00:59:30;20.57;;;9.67;;
9467;SDS011;4772;52.382;9.752;2023-01-06T01:01:57;21.87;;;9.53;;
9467;SDS011;4772;52.382;9.752;2023-01-06T01:04:23;19.37;;;9.00;;
9467;SDS011;4772;52.382;9.752;2023-01-06T01:06:50;21.43;;;9.20;;
9467;SDS011;4772;52.382;9.752;2023-01-06T01:09:17;20.23;;;9.23;;
9467;SDS011;4772;52.382;9.752;2023-01-06T01:11:45;19.10;;;10.33;;
9467;SDS011;4772;52.382;9.752;2023-01-06T01:14:30;19.80;;;9.27;;
9467;SDS011;4772;52.382;9.752;2023-01-06T01:16:59;18.83;;;9.03;;
9467;SDS011;4772;52.382;9.752;2023-01-06T01:19:25;18.83;;;9.17;;
9467;SDS011;4772;52.382;9.752;2023-01-06T01:21:51;20.17;;;9.33;;
9467;SDS011;4772;52.382;9.752;2023-01-06T01:24:17;18.33;;;9.00;;
9467;SDS011;4772;52.382;9.752;2023-01-06T01:26:44;21.50;;;9.20;;
9467;SDS011;4772;52.382;9.752;2023-01-06T01:29:11;16.27;;;8.37;;
9467;SDS011;4772;52.382;9.752;2023-01-06T01:31:37;17.50;;;8.17;;
9467;SDS011;4772;52.382;9.752;2023-01-06T01:34:03;20.20;;;8.30;;
9467;SDS011;4772;52.382;9.752;2023-01-06T01:36:29;15.37;;;8.67;;
9467;SDS011;4772;52.382;9.752;2023-01-06T01:38:56;16.73;;;8.47;;
9467;SDS011;4772;52.382;9.752;2023-01-06T01:41:22;17.43;;;8.30;;
9467;SDS011;4772;52.382;9.752;2023-01-06T01:43:50;14.43;;;8.50;;
9467;SDS011;4772;52.382;9.752;2023-01-06T01:46:17;13.70;;;7.90;;
9467;SDS011;4772;52.382;9.752;2023-01-06T01:48:44;11.87;;;7.27;;
9467;SDS011;4772;52.382;9.752;2023-01-06T01:51:10;14.40;;;8.07;;
9467;SDS011;4772;52.382;9.752;2023-01-06T01:53:39;14.47;;;7.40;;
9467;SDS011;4772;52.382;9.752;2023-01-06T01:56:07;13.77;;;7.30;;
9467;SDS011;4772;52.382;9.752;2023-01-06T01:58:35;15.73;;;7.77;;
9467;SDS011;4772;52.382;9.752;2023-01-06T02:01:02;14.43;;;7.10;;
9467;SDS011;4772;52.382;9.752;2023-01-06T02:03:28;12.47;;;6.97;;
9467;SDS011;4772;52.382;9.752;2023-01-06T02:05:55;14.27;;;8.13;;
9467;SDS011;4772;52.382;9.752;2023-01-06T02:08:35;11.20;;;7.00;;
9467;SDS011;4772;52.382;9.752;2023-01-06T02:11:02;14.43;;;7.40;;
9467;SDS011;4772;52.382;9.752;2023-01-06T02:13:29;11.93;;;7.40;;
9467;SDS011;4772;52.382;9.752;2023-01-06T02:15:59;9.97;;;7.00;;
9467;SDS011;4772;52.382;9.752;2023-01-06T02:18:43;11.93;;;7.40;;
9467;SDS011;4772;52.382;9.752;2023-01-06T02:21:19;10.80;;;7.47;;
9467;SDS011;4772;52.382;9.752;2023-01-06T02:39:42;12.00;;;7.07;;
9467;SDS011;4772;52.382;9.752;2023-01-06T02:45:20;8.90;;;5.97;;
9467;SDS011;4772;52.382;9.752;2023-01-06T02:52:56;9.90;;;5.83;;
9467;SDS011;4772;52.382;9.752;2023-01-06T03:01:05;10.33;;;5.50;;
9467;SDS011;4772;52.382;9.752;2023-01-06T03:03:33;7.47;;;5.50;;
9467;SDS011;4772;52.382;9.752;2023-01-06T03:06:04;7.33;;;5.30;;
9467;SDS011;4772;52.382;9.752;2023-01-06T03:08:30;7.23;;;4.60;;
9467;SDS011;4772;52.382;9.752;2023-01-06T03:10:58;6.20;;;5.13;;
9467;SDS011;4772;52.382;9.752;2023-01-06T03:13:35;6.00;;;4.53;;
9467;SDS011;4772;52.382;9.752;2023-01-06T03:16:04;7.27;;;5.00;;
9467;SDS011;4772;52.382;9.752;2023-01-06T03:18:30;6.40;;;4.70;;
9467;SDS011;4772;52.382;9.752;2023-01-06T03:20:58;7.87;;;4.40;;
9467;SDS011;4772;52.382;9.752;2023-01-06T03:23:25;9.07;;;4.73;;
9467;SDS011;4772;52.382;9.752;2023-01-06T03:25:51;5.90;;;4.33;;
9467;SDS011;4772;52.382;9.752;2023-01-06T03:28:17;8.53;;;4.20;;
9467;SDS011;4772;52.382;9.752;2023-01-06T03:31:28;8.93;;;3.87;;
9467;SDS011;4772;52.382;9.752;2023-01-06T03:34:06;5.47;;;4.07;;
9467;SDS011;4772;52.382;9.752;2023-01-06T03:36:38;7.97;;;3.87;;
9467;SDS011;4772;52.382;9.752;2023-01-06T03:39:16;5.67;;;3.77;;
9467;SDS011;4772;52.382;9.752;2023-01-06T03:42:02;5.17;;;4.00;;
9467;SDS011;4772;52.382;9.752;2023-01-06T03:45:13;4.70;;;3.73;;
9467;SDS011;4772;52.382;9.752;2023-01-06T03:48:00;4.43;;;3.70;;
9467;SDS011;4772;52.382;9.752;2023-01-06T03:50:31;5.87;;;3.90;;
9467;SDS011;4772;52.382;9.752;2023-01-06T03:53:08;5.50;;;3.60;;
9467;SDS011;4772;52.382;9.752;2023-01-06T03:55:39;4.10;;;3.53;;
9467;SDS011;4772;52.382;9.752;2023-01-06T03:58:06;6.43;;;3.70;;
9467;SDS011;4772;52.382;9.752;2023-01-06T04:00:34;7.50;;;3.77;;
9467;SDS011;4772;52.382;9.752;2023-01-06T04:03:02;6.83;;;4.03;;
9467;SDS011;4772;52.382;9.752;2023-01-06T04:05:28;8.87;;;3.50;;
9467;SDS011;4772;52.382;9.752;2023-01-06T04:07:54;5.83;;;3.87;;
9467;SDS011;4772;52.382;9.752;2023-01-06T04:10:21;6.73;;;3.60;;
9467;SDS011;4772;52.382;9.752;2023-01-06T04:12:47;7.67;;;3.80;;
9467;SDS011;4772;52.382;9.752;2023-01-06T04:15:17;5.93;;;3.40;;
9467;SDS011;4772;52.382;9.752;2023-01-06T04:17:43;7.33;;;3.60;;
9467;SDS011;4772;52.382;9.752;2023-01-06T04:20:12;7.83;;;4.23;;
9467;SDS011;4772;52.382;9.752;2023-01-06T04:22:38;9.03;;;3.73;;
9467;SDS011;4772;52.382;9.752;2023-01-06T04:25:04;6.43;;;3.63;;
9467;SDS011;4772;52.382;9.752;2023-01-06T04:27:31;5.03;;;3.27;;
9467;SDS011;4772;52.382;9.752;2023-01-06T04:29:57;7.93;;;3.47;;
9467;SDS011;4772;52.382;9.752;2023-01-06T04:32:23;5.40;;;3.50;;
9467;SDS011;4772;52.382;9.752;2023-01-06T04:34:49;6.03;;;3.37;;
9467;SDS011;4772;52.382;9.752;2023-01-06T04:37:15;4.17;;;3.27;;
9467;SDS011;4772;52.382;9.752;2023-01-06T04:39:41;6.33;;;3.33;;
9467;SDS011;4772;52.382;9.752;2023-01-06T04:42:07;5.00;;;3.37;;
9467;SDS011;4772;52.382;9.752;2023-01-06T04:44:33;4.00;;;3.40;;
9467;SDS011;4772;52.382;9.752;2023-01-06T04:46:59;6.37;;;3.40;;
9467;SDS011;4772;52.382;9.752;2023-01-06T04:49:25;5.10;;;3.30;;
9467;SDS011;4772;52.382;9.752;2023-01-06T04:51:51;5.07;;;3.17;;
9467;SDS011;4772;52.382;9.752;2023-01-06T04:54:17;5.47;;;3.43;;
9467;SDS011;4772;52.382;9.752;2023-01-06T04:56:43;4.63;;;3.73;;
9467;SDS011;4772;52.382;9.752;2023-01-06T04:59:09;4.67;;;3.40;;
9467;SDS011;4772;52.382;9.752;2023-01-06T05:01:35;4.90;;;3.13;;
9467;SDS011;4772;52.382;9.752;2023-01-06T05:04:01;5.27;;;3.60;;
9467;SDS011;4772;52.382;9.752;2023-01-06T05:06:27;5.10;;;3.60;;
9467;SDS011;4772;52.382;9.752;2023-01-06T05:08:53;5.53;;;3.50;;
9467;SDS011;4772;52.382;9.752;2023-01-06T05:11:20;7.53;;;3.80;;
9467;SDS011;4772;52.382;9.752;2023-01-06T05:13:46;3.47;;;2.90;;
9467;SDS011;4772;52.382;9.752;2023-01-06T05:16:17;6.20;;;3.33;;
9467;SDS011;4772;52.382;9.752;2023-01-06T05:18:44;3.83;;;2.97;;
9467;SDS011;4772;52.382;9.752;2023-01-06T05:21:10;5.73;;;3.23;;
9467;SDS011;4772;52.382;9.752;2023-01-06T05:23:36;4.43;;;3.20;;
9467;SDS011;4772;52.382;9.752;2023-01-06T05:26:03;6.07;;;2.83;;
9467;SDS011;4772;52.382;9.752;2023-01-06T05:28:29;6.07;;;3.33;;
9467;SDS011;4772;52.382;9.752;2023-01-06T05:30:59;3.80;;;2.90;;
9467;SDS011;4772;52.382;9.752;2023-01-06T05:33:25;3.97;;;2.77;;
9467;SDS011;4772;52.382;9.752;2023-01-06T05:36:02;4.43;;;2.90;;
9467;SDS011;4772;52.382;9.752;2023-01-06T05:38:28;3.67;;;2.70;;
9467;SDS011;4772;52.382;9.752;2023-01-06T05:40:54;2.83;;;2.20;;
9467;SDS011;4772;52.382;9.752;2023-01-06T05:43:24;2.83;;;2.03;;
9467;SDS011;4772;52.382;9.752;2023-01-06T05:45:50;3.23;;;2.13;;
9467;SDS011;4772;52.382;9.752;2023-01-06T05:48:17;5.03;;;2.20;;
9467;SDS011;4772;52.382;9.752;2023-01-06T05:50:43;2.97;;;1.80;;
9467;SDS011;4772;52.382;9.752;2023-01-06T05:53:09;6.43;;;2.17;;
9467;SDS011;4772;52.382;9.752;2023-01-06T05:55:35;2.50;;;2.10;;
9467;SDS011;4772;52.382;9.752;2023-01-06T05:58:01;3.80;;;1.87;;
9467;SDS011;4772;52.382;9.752;2023-01-06T06:00:27;2.37;;;1.53;;
9467;SDS011;4772;52.382;9.752;2023-01-06T06:02:54;2.87;;;1.40;;
9467;SDS011;4772;52.382;9.752;2023-01-06T06:05:20;2.27;;;1.30;;
9467;SDS011;4772;52.382;9.752;2023-01-06T06:07:52;3.83;;;1.47;;
9467;SDS011;4772;52.382;9.752;2023-01-06T06:10:18;3.13;;;1.30;;
9467;SDS011;4772;52.382;9.752;2023-01-06T06:12:45;2.53;;;1.20;;
9467;SDS011;4772;52.382;9.752;2023-01-06T06:15:11;2.17;;;1.33;;
9467;SDS011;4772;52.382;9.752;2023-01-06T06:17:37;7.53;;;1.43;;
9467;SDS011;4772;52.382;9.752;2023-01-06T06:20:03;1.40;;;1.30;;
9467;SDS011;4772;52.382;9.752;2023-01-06T06:22:29;2.57;;;1.33;;
9467;SDS011;4772;52.382;9.752;2023-01-06T06:24:55;2.37;;;1.37;;
9467;SDS011;4772;52.382;9.752;2023-01-06T06:27:21;2.93;;;1.13;;
9467;SDS011;4772;52.382;9.752;2023-01-06T06:29:47;1.13;;;0.97;;
9467;SDS011;4772;52.382;9.752;2023-01-06T06:32:13;2.83;;;1.40;;
9467;SDS011;4772;52.382;9.752;2023-01-06T06:34:39;1.87;;;1.40;;
9467;SDS011;4772;52.382;9.752;2023-01-06T06:37:05;2.30;;;1.33;;
9467;SDS011;4772;52.382;9.752;2023-01-06T06:39:31;1.93;;;1.20;;
9467;SDS011;4772;52.382;9.752;2023-01-06T06:41:57;1.37;;;1.07;;
9467;SDS011;4772;52.382;9.752;2023-01-06T06:44:23;1.63;;;1.10;;
9467;SDS011;4772;52.382;9.752;2023-01-06T06:46:49;1.70;;;1.13;;
9467;SDS011;4772;52.382;9.752;2023-01-06T06:49:15;2.47;;;1.07;;
9467;SDS011;4772;52.382;9.752;2023-01-06T06:51:41;1.90;;;1.10;;
9467;SDS011;4772;52.382;9.752;2023-01-06T06:54:07;2.57;;;1.07;;
9467;SDS011;4772;52.382;9.752;2023-01-06T06:56:33;2.13;;;1.00;;
9467;SDS011;4772;52.382;9.752;2023-01-06T06:58:59;3.50;;;1.30;;
9467;SDS011;4772;52.382;9.752;2023-01-06T07:01:25;2.10;;;1.00;;
9467;SDS011;4772;52.382;9.752;2023-01-06T07:03:51;3.70;;;1.10;;
9467;SDS011;4772;52.382;9.752;2023-01-06T07:06:18;1.10;;;0.90;;
9467;SDS011;4772;52.382;9.752;2023-01-06T07:08:45;1.27;;;1.10;;
9467;SDS011;4772;52.382;9.752;2023-01-06T07:11:11;1.80;;;1.13;;
9467;SDS011;4772;52.382;9.752;2023-01-06T07:13:37;4.70;;;1.40;;
9467;SDS011;4772;52.382;9.752;2023-01-06T07:16:03;2.47;;;1.20;;
9467;SDS011;4772;52.382;9.752;2023-01-06T07:18:30;2.03;;;1.30;;
9467;SDS011;4772;52.382;9.752;2023-01-06T07:20:55;2.83;;;1.40;;
9467;SDS011;4772;52.382;9.752;2023-01-06T07:23:22;2.53;;;1.30;;
9467;SDS011;4772;52.382;9.752;2023-01-06T07:25:51;2.40;;;1.30;;
9467;SDS011;4772;52.382;9.752;2023-01-06T07:28:18;5.47;;;1.77;;
9467;SDS011;4772;52.382;9.752;2023-01-06T07:30:44;4.57;;;2.00;;
9467;SDS011;4772;52.382;9.752;2023-01-06T07:33:10;10.17;;;4.53;;
9467;SDS011;4772;52.382;9.752;2023-01-06T07:35:36;4.67;;;1.83;;
9467;SDS011;4772;52.382;9.752;2023-01-06T07:38:03;4.00;;;1.80;;
9467;SDS011;4772;52.382;9.752;2023-01-06T07:40:29;3.30;;;1.70;;
9467;SDS011;4772;52.382;9.752;2023-01-06T07:42:55;4.00;;;2.00;;
9467;SDS011;4772;52.382;9.752;2023-01-06T07:45:21;3.87;;;1.53;;
9467;SDS011;4772;52.382;9.752;2023-01-06T07:47:47;2.67;;;1.70;;
9467;SDS011;4772;52.382;9.752;2023-01-06T07:50:13;4.00;;;1.40;;
9467;SDS011;4772;52.382;9.752;2023-01-06T07:52:39;2.83;;;1.33;;
9467;SDS011;4772;52.382;9.752;2023-01-06T07:55:05;2.97;;;1.40;;
9467;SDS011;4772;52.382;9.752;2023-01-06T07:57:31;4.17;;;1.40;;
9467;SDS011;4772;52.382;9.752;2023-01-06T07:59:57;3.20;;;1.50;;
9467;SDS011;4772;52.382;9.752;2023-01-06T08:02:23;2.97;;;1.47;;
9467;SDS011;4772;52.382;9.752;2023-01-06T08:04:49;4.50;;;1.83;;
9467;SDS011;4772;52.382;9.752;2023-01-06T08:07:15;2.60;;;1.83;;
9467;SDS011;4772;52.382;9.752;2023-01-06T08:09:41;5.93;;;3.40;;
9467;SDS011;4772;52.382;9.752;2023-01-06T08:12:07;3.93;;;1.70;;
9467;SDS011;4772;52.382;9.752;2023-01-06T08:14:33;3.87;;;1.50;;
9467;SDS011;4772;52.382;9.752;2023-01-06T08:16:59;3.37;;;1.40;;
9467;SDS011;4772;52.382;9.752;2023-01-06T08:19:25;1.80;;;1.40;;
9467;SDS011;4772;52.382;9.752;2023-01-06T08:21:51;2.77;;;1.43;;
9467;SDS011;4772;52.382;9.752;2023-01-06T08:24:17;4.87;;;1.40;;
9467;SDS011;4772;52.382;9.752;2023-01-06T08:26:43;2.80;;;1.60;;
9467;SDS011;4772;52.382;9.752;2023-01-06T08:29:09;2.57;;;1.47;;
9467;SDS011;4772;52.382;9.752;2023-01-06T08:31:35;3.73;;;1.50;;
9467;SDS011;4772;52.382;9.752;2023-01-06T08:34:01;3.93;;;1.33;;
9467;SDS011;4772;52.382;9.752;2023-01-06T08:36:27;3.00;;;1.60;;
9467;SDS011;4772;52.382;9.752;2023-01-06T08:38:53;1.70;;;1.27;;
9467;SDS011;4772;52.382;9.752;2023-01-06T08:41:19;5.23;;;1.50;;
9467;SDS011;4772;52.382;9.752;2023-01-06T08:43:45;2.70;;;1.40;;
9467;SDS011;4772;52.382;9.752;2023-01-06T08:46:13;3.10;;;1.40;;
9467;SDS011;4772;52.382;9.752;2023-01-06T08:48:39;3.43;;;1.40;;
9467;SDS011;4772;52.382;9.752;2023-01-06T08:51:06;5.87;;;1.50;;
9467;SDS011;4772;52.382;9.752;2023-01-06T08:53:33;6.33;;;1.93;;
9467;SDS011;4772;52.382;9.752;2023-01-06T08:55:59;1.90;;;1.60;;
9467;SDS011;4772;52.382;9.752;2023-01-06T08:58:25;4.10;;;1.80;;
9467;SDS011;4772;52.382;9.752;2023-01-06T09:00:52;5.53;;;2.17;;
9467;SDS011;4772;52.382;9.752;2023-01-06T09:03:18;2.27;;;1.33;;
9467;SDS011;4772;52.382;9.752;2023-01-06T09:05:54;2.13;;;1.30;;
9467;SDS011;4772;52.382;9.752;2023-01-06T09:08:20;1.70;;;1.43;;
9467;SDS011;4772;52.382;9.752;2023-01-06T09:10:47;3.07;;;1.40;;
9467;SDS011;4772;52.382;9.752;2023-01-06T09:13:14;3.97;;;1.67;;
9467;SDS011;4772;52.382;9.752;2023-01-06T09:15:41;4.47;;;1.80;;
9467;SDS011;4772;52.382;9.752;2023-01-06T09:18:07;2.77;;;1.33;;
9467;SDS011;4772;52.382;9.752;2023-01-06T09:20:34;5.00;;;1.67;;
9467;SDS011;4772;52.382;9.752;2023-01-06T09:23:00;3.90;;;1.50;;
9467;SDS011;4772;52.382;9.752;2023-01-06T09:25:26;2.20;;;1.30;;
9467;SDS011;4772;52.382;9.752;2023-01-06T09:27:52;3.00;;;1.30;;
9467;SDS011;4772;52.382;9.752;2023-01-06T09:30:18;2.27;;;1.30;;
9467;SDS011;4772;52.382;9.752;2023-01-06T09:32:44;3.23;;;1.60;;
9467;SDS011;4772;52.382;9.752;2023-01-06T09:35:10;4.00;;;1.50;;
9467;SDS011;4772;52.382;9.752;2023-01-06T09:37:37;1.47;;;1.30;;
9467;SDS011;4772;52.382;9.752;2023-01-06T09:40:03;2.63;;;1.47;;
9467;SDS011;4772;52.382;9.752;2023-01-06T09:44:57;1.53;;;1.20;;
9467;SDS011;4772;52.382;9.752;2023-01-06T09:47:35;1.47;;;1.13;;
9467;SDS011;4772;52.382;9.752;2023-01-06T09:50:07;2.20;;;1.10;;
9467;SDS011;4772;52.382;9.752;2023-01-06T09:52:45;4.20;;;1.27;;
9467;SDS011;4772;52.382;9.752;2023-01-06T09:57:53;2.07;;;1.27;;
9467;SDS011;4772;52.382;9.752;2023-01-06T10:02:55;3.07;;;1.20;;
9467;SDS011;4772;52.382;9.752;2023-01-06T10:05:37;2.10;;;1.40;;
9467;SDS011;4772;52.382;9.752;2023-01-06T10:08:10;1.50;;;1.20;;
9467;SDS011;4772;52.382;9.752;2023-01-06T10:18:27;1.87;;;1.33;;
9467;SDS011;4772;52.382;9.752;2023-01-06T10:20:59;2.13;;;1.60;;
9467;SDS011;4772;52.382;9.752;2023-01-06T10:28:28;2.13;;;1.77;;
9467;SDS011;4772;52.382;9.752;2023-01-06T10:30:55;1.43;;;1.33;;
9467;SDS011;4772;52.382;9.752;2023-01-06T10:33:23;3.10;;;1.73;;
9467;SDS011;4772;52.382;9.752;2023-01-06T10:35:50;3.03;;;1.80;;
9467;SDS011;4772;52.382;9.752;2023-01-06T10:38:16;2.17;;;1.80;;
9467;SDS011;4772;52.382;9.752;2023-01-06T10:40:43;2.97;;;1.73;;
9467;SDS011;4772;52.382;9.752;2023-01-06T10:43:10;2.87;;;1.67;;
9467;SDS011;4772;52.382;9.752;2023-01-06T10:48:06;2.77;;;1.90;;
9467;SDS011;4772;52.382;9.752;2023-01-06T10:50:33;1.43;;;1.30;;
9467;SDS011;4772;52.382;9.752;2023-01-06T10:53:00;3.53;;;1.50;;
9467;SDS011;4772;52.382;9.752;2023-01-06T10:55:41;2.03;;;1.30;;
9467;SDS011;4772;52.382;9.752;2023-01-06T11:00:57;2.57;;;1.87;;
9467;SDS011;4772;52.382;9.752;2023-01-06T11:03:23;3.37;;;1.87;;
9467;SDS011;4772;52.382;9.752;2023-01-06T11:06:06;2.07;;;1.60;;
9467;SDS011;4772;52.382;9.752;2023-01-06T11:08:33;2.73;;;2.10;;
9467;SDS011;4772;52.382;9.752;2023-01-06T11:10:59;3.87;;;1.90;;
9467;SDS011;4772;52.382;9.752;2023-01-06T11:13:27;3.53;;;2.03;;
9467;SDS011;4772;52.382;9.752;2023-01-06T11:15:53;3.87;;;1.70;;
9467;SDS011;4772;52.382;9.752;2023-01-06T11:18:30;1.93;;;1.83;;
9467;SDS011;4772;52.382;9.752;2023-01-06T11:21:00;2.53;;;2.00;;
9467;SDS011;4772;52.382;9.752;2023-01-06T11:23:27;2.57;;;1.90;;
9467;SDS011;4772;52.382;9.752;2023-01-06T11:26:08;2.53;;;2.13;;
9467;SDS011;4772;52.382;9.752;2023-01-06T11:28:37;2.20;;;2.00;;
9467;SDS011;4772;52.382;9.752;2023-01-06T11:31:22;2.50;;;1.97;;
9467;SDS011;4772;52.382;9.752;2023-01-06T11:33:59;2.30;;;2.10;;
9467;SDS011;4772;52.382;9.752;2023-01-06T11:36:27;2.00;;;1.90;;
9467;SDS011;4772;52.382;9.752;2023-01-06T11:41:31;2.03;;;1.90;;
9467;SDS011;4772;52.382;9.752;2023-01-06T11:44:06;1.77;;;1.67;;
9467;SDS011;4772;52.382;9.752;2023-01-06T11:46:33;2.10;;;1.90;;
9467;SDS011;4772;52.382;9.752;2023-01-06T11:49:00;1.80;;;1.70;;
9467;SDS011;4772;52.382;9.752;2023-01-06T11:51:46;1.90;;;1.80;;
9467;SDS011;4772;52.382;9.752;2023-01-06T11:59:45;1.67;;;1.50;;
9467;SDS011;4772;52.382;9.752;2023-01-06T12:02:19;1.77;;;1.67;;
9467;SDS011;4772;52.382;9.752;2023-01-06T12:04:47;2.50;;;1.40;;
9467;SDS011;4772;52.382;9.752;2023-01-06T12:09:46;1.60;;;1.50;;
9467;SDS011;4772;52.382;9.752;2023-01-06T12:12:18;1.70;;;1.53;;
9467;SDS011;4772;52.382;9.752;2023-01-06T12:14:46;1.60;;;1.50;;
9467;SDS011;4772;52.382;9.752;2023-01-06T12:20:00;2.20;;;2.00;;
9467;SDS011;4772;52.382;9.752;2023-01-06T12:22:39;2.20;;;2.00;;
9467;SDS011;4772;52.382;9.752;2023-01-06T12:25:11;1.60;;;1.50;;
9467;SDS011;4772;52.382;9.752;2023-01-06T12:27:41;2.27;;;1.50;;
9467;SDS011;4772;52.382;9.752;2023-01-06T12:30:20;1.50;;;1.40;;
9467;SDS011;4772;52.382;9.752;2023-01-06T12:32:49;3.93;;;3.23;;
9467;SDS011;4772;52.382;9.752;2023-01-06T12:35:18;2.23;;;1.80;;
9467;SDS011;4772;52.382;9.752;2023-01-06T12:37:47;3.73;;;2.10;;
9467;SDS011;4772;52.382;9.752;2023-01-06T12:40:28;2.60;;;2.10;;
9467;SDS011;4772;52.382;9.752;2023-01-06T12:42:58;1.77;;;1.63;;
9467;SDS011;4772;52.382;9.752;2023-01-06T12:45:41;1.77;;;1.60;;
9467;SDS011;4772;52.382;9.752;2023-01-06T12:48:16;2.30;;;1.70;;
9467;SDS011;4772;52.382;9.752;2023-01-06T12:50:44;2.33;;;2.03;;
9467;SDS011;4772;52.382;9.752;2023-01-06T12:53:21;2.63;;;1.70;;
9467;SDS011;4772;52.382;9.752;2023-01-06T12:56:10;3.23;;;2.00;;
9467;SDS011;4772;52.382;9.752;2023-01-06T13:01:11;4.37;;;1.70;;
9467;SDS011;4772;52.382;9.752;2023-01-06T13:09:03;3.50;;;2.40;;
9467;SDS011;4772;52.382;9.752;2023-01-06T13:14:26;4.10;;;2.63;;
9467;SDS011;4772;52.382;9.752;2023-01-06T13:19:28;2.57;;;2.10;;
9467;SDS011;4772;52.382;9.752;2023-01-06T13:21:59;2.60;;;2.20;;
9467;SDS011;4772;52.382;9.752;2023-01-06T13:24:36;2.23;;;1.80;;
9467;SDS011;4772;52.382;9.752;2023-01-06T13:29:44;4.40;;;1.67;;
9467;SDS011;4772;52.382;9.752;2023-01-06T13:32:19;1.70;;;1.47;;
9467;SDS011;4772;52.382;9.752;2023-01-06T13:37:30;1.60;;;1.20;;
9467;SDS011;4772;52.382;9.752;2023-01-06T13:40:19;2.47;;;1.43;;
9467;SDS011;4772;52.382;9.752;2023-01-06T13:42:49;2.57;;;1.43;;
9467;SDS011;4772;52.382;9.752;2023-01-06T13:45:19;3.27;;;1.10;;
9467;SDS011;4772;52.382;9.752;2023-01-06T13:47:46;2.63;;;1.50;;
9467;SDS011;4772;52.382;9.752;2023-01-06T13:50:14;2.57;;;1.20;;
9467;SDS011;4772;52.382;9.752;2023-01-06T13:52:41;2.33;;;1.40;;
9467;SDS011;4772;52.382;9.752;2023-01-06T13:55:24;2.57;;;1.40;;
9467;SDS011;4772;52.382;9.752;2023-01-06T13:57:51;3.53;;;1.23;;
9467;SDS011;4772;52.382;9.752;2023-01-06T14:00:18;2.60;;;1.30;;
9467;SDS011;4772;52.382;9.752;2023-01-06T14:07:53;2.37;;;1.47;;
9467;SDS011;4772;52.382;9.752;2023-01-06T14:12:58;3.93;;;1.77;;
9467;SDS011;4772;52.382;9.752;2023-01-06T14:15:26;2.30;;;1.53;;
9467;SDS011;4772;52.382;9.752;2023-01-06T14:17:53;4.20;;;1.70;;
9467;SDS011;4772;52.382;9.752;2023-01-06T14:20:40;2.47;;;1.77;;
9467;SDS011;4772;52.382;9.752;2023-01-06T14:23:06;3.10;;;1.63;;
9467;SDS011;4772;52.382;9.752;2023-01-06T14:25:45;4.03;;;1.67;;
9467;SDS011;4772;52.382;9.752;2023-01-06T14:30:48;3.70;;;1.63;;
9467;SDS011;4772;52.382;9.752;2023-01-06T14:35:50;6.10;;;2.10;;
9467;SDS011;4772;52.382;9.752;2023-01-06T14:38:22;2.30;;;1.60;;
9467;SDS011;4772;52.382;9.752;2023-01-06T14:40:54;2.73;;;1.57;;
9467;SDS011;4772;52.382;9.752;2023-01-06T14:45:47;3.40;;;1.47;;
9467;SDS011;4772;52.382;9.752;2023-01-06T14:48:13;4.23;;;1.70;;
9467;SDS011;4772;52.382;9.752;2023-01-06T14:50:42;2.40;;;1.50;;
9467;SDS011;4772;52.382;9.752;2023-01-06T14:53:11;3.23;;;2.00;;
9467;SDS011;4772;52.382;9.752;2023-01-06T14:55:39;1.60;;;1.40;;
9467;SDS011;4772;52.382;9.752;2023-01-06T14:58:27;2.77;;;1.67;;
9467;SDS011;4772;52.382;9.752;2023-01-06T15:00:53;3.87;;;1.83;;
9467;SDS011;4772;52.382;9.752;2023-01-06T15:03:20;4.13;;;2.10;;
9467;SDS011;4772;52.382;9.752;2023-01-06T15:05:47;3.57;;;1.60;;
9467;SDS011;4772;52.382;9.752;2023-01-06T15:08:16;2.20;;;1.37;;
9467;SDS011;4772;52.382;9.752;2023-01-06T15:10:46;2.50;;;1.20;;
9467;SDS011;4772;52.382;9.752;2023-01-06T15:13:22;2.77;;;1.40;;
9467;SDS011;4772;52.382;9.752;2023-01-06T15:15:52;2.30;;;1.63;;
9467;SDS011;4772;52.382;9.752;2023-01-06T15:21:28;4.50;;;1.93;;
9467;SDS011;4772;52.382;9.752;2023-01-06T15:23:54;3.93;;;1.87;;
9467;SDS011;4772;52.382;9.752;2023-01-06T15:26:24;5.70;;;3.10;;
9467;SDS011;4772;52.382;9.752;2023-01-06T15:28:55;1.93;;;1.70;;
9467;SDS011;4772;52.382;9.752;2023-01-06T15:31:25;3.30;;;1.77;;
9467;SDS011;4772;52.382;9.752;2023-01-06T15:33:51;2.93;;;1.73;;
9467;SDS011;4772;52.382;9.752;2023-01-06T15:36:19;2.87;;;1.70;;
9467;SDS011;4772;52.382;9.752;2023-01-06T15:38:46;3.97;;;2.00;;
9467;SDS011;4772;52.382;9.752;2023-01-06T15:41:14;4.23;;;2.27;;
9467;SDS011;4772;52.382;9.752;2023-01-06T15:44:00;5.07;;;2.40;;
9467;SDS011;4772;52.382;9.752;2023-01-06T15:46:33;5.90;;;2.37;;
9467;SDS011;4772;52.382;9.752;2023-01-06T15:49:01;3.27;;;2.23;;
9467;SDS011;4772;52.382;9.752;2023-01-06T15:51:27;6.53;;;3.00;;
9467;SDS011;4772;52.382;9.752;2023-01-06T15:53:54;5.50;;;3.37;;
9467;SDS011;4772;52.382;9.752;2023-01-06T15:56:22;6.23;;;3.90;;
9467;SDS011;4772;52.382;9.752;2023-01-06T15:58:49;5.67;;;3.83;;
9467;SDS011;4772;52.382;9.752;2023-01-06T16:01:17;4.37;;;3.50;;
9467;SDS011;4772;52.382;9.752;2023-01-06T16:03:54;5.03;;;3.20;;
9467;SDS011;4772;52.382;9.752;2023-01-06T16:08:52;5.17;;;3.10;;
9467;SDS011;4772;52.382;9.752;2023-01-06T16:11:25;5.07;;;2.40;;
9467;SDS011;4772;52.382;9.752;2023-01-06T16:14:29;4.53;;;2.67;;
9467;SDS011;4772;52.382;9.752;2023-01-06T16:17:06;4.33;;;3.17;;
9467;SDS011;4772;52.382;9.752;2023-01-06T16:19:33;5.77;;;2.87;;
9467;SDS011;4772;52.382;9.752;2023-01-06T16:22:05;4.70;;;2.67;;
9467;SDS011;4772;52.382;9.752;2023-01-06T16:24:32;5.97;;;2.93;;
9467;SDS011;4772;52.382;9.752;2023-01-06T16:27:02;4.83;;;3.00;;
9467;SDS011;4772;52.382;9.752;2023-01-06T16:29:36;6.67;;;3.30;;
9467;SDS011;4772;52.382;9.752;2023-01-06T16:34:50;4.93;;;3.30;;
9467;SDS011;4772;52.382;9.752;2023-01-06T16:37:17;4.57;;;3.30;;
9467;SDS011;4772;52.382;9.752;2023-01-06T16:39:43;6.37;;;3.77;;
9467;SDS011;4772;52.382;9.752;2023-01-06T16:45:02;9.27;;;5.83;;
9467;SDS011;4772;52.382;9.752;2023-01-06T16:47:28;11.60;;;6.10;;
9467;SDS011;4772;52.382;9.752;2023-01-06T16:49:54;9.37;;;6.33;;
9467;SDS011;4772;52.382;9.752;2023-01-06T16:52:21;11.80;;;6.67;;
9467;SDS011;4772;52.382;9.752;2023-01-06T16:54:51;11.93;;;7.57;;
9467;SDS011;4772;52.382;9.752;2023-01-06T16:57:17;11.47;;;6.63;;
9467;SDS011;4772;52.382;9.752;2023-01-06T16:59:44;11.50;;;6.60;;
9467;SDS011;4772;52.382;9.752;2023-01-06T17:02:12;11.33;;;6.60;;
9467;SDS011;4772;52.382;9.752;2023-01-06T17:04:39;7.40;;;5.50;;
9467;SDS011;4772;52.382;9.752;2023-01-06T17:07:10;7.77;;;5.60;;
9467;SDS011;4772;52.382;9.752;2023-01-06T17:09:38;7.23;;;6.17;;
9467;SDS011;4772;52.382;9.752;2023-01-06T17:12:09;8.53;;;6.10;;
9467;SDS011;4772;52.382;9.752;2023-01-06T17:14:36;10.13;;;7.00;;
9467;SDS011;4772;52.382;9.752;2023-01-06T17:17:12;12.73;;;7.80;;